Time;durP1;ratioP1;P1;durP2;ratioP2;P2;SDS_P1;SDS_P2;PMS_P1;PMS_P2;Temp;Humidity;BMP_temperature;BMP_pressure;BME280_temperature;BME280_humidity;BME280_pressure;Samples;Min_cycle;Max_cycle;Signal;HPM_P1;HPM_P2
2022/01/12 00:00:43;;;;;;;0.20;0.20;;;3.20;99.90;;;2.82;100.00;102112.28;5077449;28;20232;-82
2022/01/12 00:03:11;;;;;;;0.20;0.20;;;3.20;99.90;;;2.77;100.00;102113.69;5060370;28;20232;-83
2022/01/12 00:05:40;;;;;;;0.20;0.20;;;3.20;99.90;;;2.74;100.00;102111.78;5062248;28;20213;-83
2022/01/12 00:08:08;;;;;;;0.20;0.20;;;3.20;99.90;;;2.78;100.00;102146.88;5078575;28;20201;-83
2022/01/12 00:10:38;;;;;;;0.20;0.20;;;3.20;99.90;;;2.67;100.00;102133.06;5056029;28;20238;-83
2022/01/12 00:13:06;;;;;;;0.20;0.20;;;3.10;99.90;;;2.69;100.00;102139.31;5095858;28;20208;-83
2022/01/12 00:15:34;;;;;;;0.20;0.20;;;3.10;99.90;;;2.64;100.00;102142.41;5076794;28;20209;-83
2022/01/12 00:18:02;;;;;;;0.20;0.20;;;3.00;99.90;;;2.61;100.00;102132.66;5056674;28;20201;-83
2022/01/12 00:20:30;;;;;;;0.20;0.20;;;3.00;99.90;;;2.55;100.00;102120.06;5041584;28;20221;-83
2022/01/12 00:22:58;;;;;;;0.20;0.20;;;3.00;99.90;;;2.56;100.00;102127.09;5061849;28;20208;-83
2022/01/12 00:25:33;;;;;;;0.20;0.20;;;3.00;99.90;;;2.62;100.00;102133.56;5046535;28;20229;-83
2022/01/12 00:33:40;;;;;;;0.20;0.20;;;2.90;99.90;;;2.49;100.00;102122.25;5091223;28;20890;-83
2022/01/12 00:36:08;;;;;;;0.20;0.20;;;2.90;99.90;;;2.45;100.00;102112.41;5050749;28;20224;-83
2022/01/12 00:38:36;;;;;;;0.20;0.20;;;2.90;99.90;;;2.50;100.00;102126.66;5046724;28;20577;-82
2022/01/12 00:41:04;;;;;;;0.20;0.20;;;2.90;99.90;;;2.46;100.00;102113.31;5057985;28;20239;-83
2022/01/12 00:43:34;;;;;;;0.20;0.20;;;2.90;99.90;;;2.41;100.00;102084.25;5075612;28;20225;-83
2022/01/12 00:46:04;;;;;;;0.20;0.20;;;2.80;99.90;;;2.45;100.00;102059.25;5062852;28;20205;-83
2022/01/12 00:48:36;;;;;;;0.20;0.20;;;2.80;99.90;;;2.43;100.00;102040.88;5059713;28;20205;-83
2022/01/12 00:51:04;;;;;;;0.20;0.20;;;2.80;99.90;;;2.38;100.00;102010.94;5078068;28;20233;-82
2022/01/12 00:53:32;;;;;;;0.10;0.10;;;2.80;99.90;;;2.37;100.00;102016.06;5080390;28;20220;-83
2022/01/12 00:56:00;;;;;;;0.63;0.63;;;2.70;99.90;;;2.36;100.00;102003.81;5081505;28;20206;-83
2022/01/12 00:58:28;;;;;;;0.20;0.20;;;2.80;99.90;;;2.37;100.00;102018.69;5079583;28;20206;-83
2022/01/12 01:00:56;;;;;;;0.20;0.20;;;2.70;99.90;;;2.27;100.00;101993.66;5081001;28;20237;-83
2022/01/12 01:03:24;;;;;;;0.20;0.20;;;2.70;99.90;;;2.32;100.00;102010.53;5043763;28;20194;-83
2022/01/12 01:05:53;;;;;;;0.20;0.20;;;2.70;99.90;;;2.32;100.00;102014.84;5075604;28;20232;-83
2022/01/12 01:08:21;;;;;;;0.20;0.20;;;2.70;99.90;;;2.32;100.00;102012.25;5050257;28;20220;-83
2022/01/12 01:10:51;;;;;;;0.20;0.20;;;2.70;99.90;;;2.31;100.00;102003.50;5046713;28;20233;-83
2022/01/12 01:13:28;;;;;;;0.20;0.20;;;2.60;99.90;;;2.32;100.00;102002.72;5056695;28;20786;-83
2022/01/12 01:26:51;;;;;;;0.20;0.20;;;2.60;99.90;;;2.28;100.00;101995.47;5069766;28;20205;-82
2022/01/12 01:29:20;;;;;;;0.20;0.20;;;2.60;99.90;;;2.29;100.00;102002.50;5042378;28;20209;-82
2022/01/12 01:31:49;;;;;;;0.20;0.20;;;2.60;99.90;;;2.24;100.00;102016.94;5054069;28;20221;-83
2022/01/12 01:34:17;;;;;;;0.20;0.20;;;2.60;99.90;;;2.22;100.00;102006.41;5071334;28;20202;-83
2022/01/12 01:36:52;;;;;;;0.30;0.30;;;2.60;99.90;;;2.21;100.00;102002.00;5051776;28;20205;-83
2022/01/12 01:39:27;;;;;;;0.20;0.20;;;2.60;99.90;;;2.18;100.00;101999.16;5058881;28;20587;-83
2022/01/12 01:42:05;;;;;;;0.20;0.20;;;2.60;99.90;;;2.21;100.00;101988.94;5054558;28;20234;-82
2022/01/12 01:53:18;;;;;;;0.20;0.20;;;2.60;99.90;;;2.15;100.00;101964.13;5059359;28;20228;-82
2022/01/12 01:53:20;;;;;;;0.20;0.20;;;2.50;99.90;;;2.12;100.00;101975.25;5063324;28;20194;-82
2022/01/12 01:55:51;;;;;;;0.20;0.20;;;2.50;99.90;;;2.07;100.00;101992.31;5046448;28;20215;-83
2022/01/12 01:58:21;;;;;;;0.20;0.20;;;2.50;99.90;;;2.05;100.00;101998.25;5076285;28;20205;-83
2022/01/12 02:00:49;;;;;;;0.20;0.20;;;2.40;99.90;;;2.05;100.00;101977.38;5071561;28;20243;-82
2022/01/12 02:03:26;;;;;;;0.20;0.20;;;2.40;99.90;;;2.07;100.00;101987.09;5076129;28;20210;-82
2022/01/12 02:05:59;;;;;;;0.30;0.30;;;2.40;99.90;;;2.00;100.00;101992.72;5055027;28;20225;-82
2022/01/12 02:08:27;;;;;;;0.20;0.20;;;2.40;99.90;;;2.02;100.00;101982.38;5076876;28;20238;-83
2022/01/12 02:11:29;;;;;;;0.20;0.20;;;2.30;99.90;;;2.05;100.00;101975.66;5058186;22;20223;-80
2022/01/12 02:14:05;;;;;;;0.20;0.20;;;2.40;99.90;;;2.04;100.00;101975.56;5003657;28;20218;-80
2022/01/12 02:16:48;;;;;;;0.20;0.20;;;2.40;99.90;;;2.03;100.00;101999.84;5015859;28;20211;-80
2022/01/12 02:19:41;;;;;;;0.20;0.20;;;2.40;99.90;;;1.96;100.00;101984.56;5019832;28;20226;-80
2022/01/12 02:36:29;;;;;;;0.28;0.28;;;2.30;99.90;;;1.80;100.00;101980.00;5019254;28;20211;-80
2022/01/12 02:42:04;;;;;;;0.20;0.20;;;2.20;99.90;;;1.67;100.00;101991.28;4963749;28;20242;-80
2022/01/12 02:53:41;;;;;;;0.25;0.25;;;2.00;99.90;;;1.70;100.00;102001.03;5022165;28;20195;-80
2022/01/12 02:55:49;;;;;;;0.20;0.20;;;2.00;99.90;;;1.63;100.00;102015.34;5016033;28;20214;-80
2022/01/12 02:58:17;;;;;;;0.25;0.25;;;2.00;99.90;;;1.62;100.00;102025.69;5016723;28;20218;-80
2022/01/12 03:01:06;;;;;;;0.20;0.20;;;2.00;99.90;;;1.64;100.00;102044.94;4995891;28;20223;-80
2022/01/12 03:03:41;;;;;;;0.20;0.20;;;2.00;99.90;;;1.51;100.00;102025.81;5015972;28;20207;-80
2022/01/12 03:06:14;;;;;;;0.30;0.30;;;2.00;99.90;;;1.54;100.00;102027.75;5017554;28;20234;-80
2022/01/12 03:08:42;;;;;;;0.30;0.30;;;1.90;99.90;;;1.53;100.00;102019.03;5017763;28;20206;-80
2022/01/12 03:11:15;;;;;;;0.20;0.20;;;1.90;99.90;;;1.47;100.00;101999.44;5003337;28;20235;-80
2022/01/12 03:13:45;;;;;;;0.20;0.20;;;1.90;99.90;;;1.42;100.00;101995.59;4989436;28;20204;-80
2022/01/12 03:16:17;;;;;;;0.20;0.20;;;1.90;99.90;;;1.42;100.00;102004.31;5014494;28;20199;-80
2022/01/12 03:18:52;;;;;;;0.30;0.30;;;1.80;99.90;;;1.30;100.00;101987.81;5016092;28;20230;-80
2022/01/12 03:21:25;;;;;;;0.20;0.20;;;1.80;99.90;;;1.37;100.00;101999.56;4984594;28;20471;-80
2022/01/12 03:23:54;;;;;;;0.20;0.20;;;1.80;99.90;;;1.31;100.00;101978.28;4996171;28;20206;-80
2022/01/12 03:26:25;;;;;;;0.20;0.20;;;1.80;99.90;;;1.32;100.00;101970.59;5014820;28;20230;-80
2022/01/12 03:28:55;;;;;;;0.20;0.20;;;1.70;99.90;;;1.28;100.00;101977.25;4980168;28;20222;-80
2022/01/12 03:31:28;;;;;;;0.20;0.20;;;1.70;99.90;;;1.29;100.00;101983.38;5011991;28;20229;-80
2022/01/12 03:34:24;;;;;;;0.30;0.30;;;1.70;99.90;;;1.24;100.00;101983.03;5011832;28;20665;-80
2022/01/12 03:39:40;;;;;;;0.30;0.30;;;1.70;99.90;;;1.12;100.00;101978.66;5018157;28;20218;-80
2022/01/12 03:42:09;;;;;;;0.20;0.20;;;1.60;99.90;;;0.96;100.00;101974.06;4978381;28;20207;-80
2022/01/12 03:44:37;;;;;;;0.20;0.20;;;1.50;99.90;;;0.93;100.00;101992.06;5013147;28;20215;-80
2022/01/12 03:47:06;;;;;;;0.30;0.30;;;1.50;99.90;;;0.95;100.00;102014.81;5013975;28;20223;-80
2022/01/12 03:49:34;;;;;;;0.20;0.20;;;1.40;99.90;;;0.93;100.00;102023.31;4996666;28;20202;-80
2022/01/12 03:52:03;;;;;;;0.20;0.20;;;1.40;99.90;;;0.89;100.00;102017.00;4985682;28;20223;-80
2022/01/12 03:54:31;;;;;;;0.20;0.20;;;1.40;99.90;;;0.87;100.00;102018.56;4996562;28;20214;-80
2022/01/12 03:56:59;;;;;;;0.30;0.30;;;1.30;99.90;;;0.72;100.00;101999.22;4981589;28;20215;-80
2022/01/12 03:59:28;;;;;;;0.30;0.30;;;1.30;99.90;;;0.78;100.00;102014.38;4999509;28;20325;-80
2022/01/12 04:01:57;;;;;;;0.22;0.22;;;1.20;99.90;;;0.71;100.00;102007.84;4992656;28;20234;-80
2022/01/12 04:04:34;;;;;;;0.20;0.20;;;1.20;99.90;;;0.42;100.00;101978.75;4996847;28;20211;-80
2022/01/12 04:09:49;;;;;;;0.30;0.30;;;1.00;99.90;;;0.63;100.00;102041.13;5009675;28;20211;-81
2022/01/12 04:12:17;;;;;;;0.30;0.30;;;1.00;99.90;;;0.51;100.00;102037.59;5002896;28;20215;-80
2022/01/12 04:14:45;;;;;;;0.20;0.20;;;1.00;99.90;;;0.48;100.00;102053.00;4990415;28;20200;-80
2022/01/12 04:17:14;;;;;;;0.20;0.20;;;1.00;99.90;;;0.48;100.00;102065.09;5007943;28;20690;-81
2022/01/12 04:19:45;;;;;;;0.30;0.30;;;0.90;99.90;;;0.41;100.00;102060.22;5014069;28;20214;-81
2022/01/12 04:25:01;;;;;;;0.30;0.30;;;0.80;99.90;;;0.22;100.00;102055.31;5015739;28;20219;-81
2022/01/12 04:27:29;;;;;;;0.20;0.20;;;0.70;99.90;;;0.10;100.00;102034.47;5003990;28;20227;-81
2022/01/12 04:29:57;;;;;;;0.30;0.30;;;0.70;99.90;;;0.08;100.00;102049.06;5005783;28;20209;-81
2022/01/12 04:32:26;;;;;;;0.20;0.20;;;0.60;99.90;;;-0.06;100.00;102040.16;5006540;28;20216;-84
2022/01/12 04:34:54;;;;;;;0.20;0.20;;;0.50;99.90;;;-0.08;100.00;102054.75;5007875;28;20215;-84
2022/01/12 04:37:22;;;;;;;0.20;0.20;;;0.50;99.90;;;-0.18;100.00;102054.81;5014114;28;20210;-83
2022/01/12 04:43:00;;;;;;;0.20;0.20;;;0.40;99.90;;;-0.10;100.00;102071.94;5125799;23;20279;-80
2022/01/12 04:48:08;;;;;;;0.22;0.22;;;0.30;99.90;;;-0.26;100.00;102068.00;4923238;29;20217;-80
2022/01/12 04:50:37;;;;;;;0.20;0.20;;;0.30;99.90;;;-0.27;100.00;102071.41;4938365;29;20202;-80
2022/01/12 04:53:06;;;;;;;0.30;0.30;;;0.20;99.90;;;-0.31;100.00;102075.44;4905574;29;20223;-80
2022/01/12 04:55:35;;;;;;;0.30;0.30;;;0.20;99.90;;;-0.38;100.00;102068.88;4925833;23;20222;-83
2022/01/12 04:58:04;;;;;;;0.22;0.22;;;0.10;99.90;;;-0.57;100.00;102056.91;4934803;29;20211;-83
2022/01/12 05:00:34;;;;;;;0.10;0.10;;;0.10;99.90;;;-0.53;100.00;102084.94;4922041;29;20211;-83
2022/01/12 05:09:09;;;;;;;0.25;0.25;;;0.00;99.90;;;-0.63;100.00;102085.00;4891802;29;20214;-83
2022/01/12 05:14:38;;;;;;;0.28;0.28;;;-0.10;99.90;;;-0.52;100.00;102111.06;4903441;29;20215;-83
2022/01/12 05:17:07;;;;;;;0.30;0.30;;;-0.10;99.90;;;-0.76;100.00;102088.31;4913901;29;20234;-83
2022/01/12 05:19:35;;;;;;;0.30;0.30;;;-0.20;99.90;;;-0.76;100.00;102096.09;4883549;29;20213;-82
2022/01/12 05:22:03;;;;;;;0.30;0.30;;;-0.30;99.90;;;-0.79;100.00;102093.25;4886351;29;20212;-83
2022/01/12 05:24:33;;;;;;;0.20;0.20;;;-0.30;99.90;;;-0.68;100.00;102108.91;4899251;29;20222;-83
2022/01/12 05:27:21;;;;;;;0.20;0.20;;;-0.30;99.90;;;-0.83;100.00;102101.59;4892800;29;20230;-83
2022/01/12 05:29:49;;;;;;;0.20;0.20;;;-0.30;99.90;;;-0.91;100.00;102094.84;4883754;29;20214;-82
2022/01/12 05:32:18;;;;;;;0.20;0.20;;;-0.40;99.90;;;-0.86;100.00;102111.72;4898840;29;20253;-82
2022/01/12 05:34:47;;;;;;;0.43;0.43;;;-0.40;99.90;;;-1.05;100.00;102085.94;4895714;29;20200;-82
2022/01/12 05:37:15;;;;;;;0.20;0.20;;;-0.50;99.90;;;-0.90;100.00;102118.34;4885128;29;20239;-82
2022/01/12 05:41:17;;;;;;;0.20;0.20;;;-0.50;99.90;;;-0.90;100.00;102126.16;4900428;29;20745;-82
2022/01/12 05:43:47;;;;;;;0.30;0.30;;;-0.50;99.90;;;-1.00;100.00;102114.09;4912000;29;20203;-82
2022/01/12 05:46:16;;;;;;;0.20;0.20;;;-0.50;99.90;;;-1.07;100.00;102122.16;4884888;29;20246;-83
2022/01/12 05:51:38;;;;;;;0.20;0.20;;;-0.60;99.90;;;-1.13;100.00;102116.47;4902266;29;20207;-82
2022/01/12 05:54:06;;;;;;;0.30;0.30;;;-0.70;99.90;;;-1.32;100.00;102102.72;4884291;29;20203;-83
2022/01/12 05:56:34;;;;;;;0.20;0.20;;;-0.70;99.90;;;-1.13;100.00;102131.16;4900079;29;20231;-82
2022/01/12 05:59:03;;;;;;;0.30;0.30;;;-0.70;99.90;;;-1.01;100.00;102139.94;4881542;29;20218;-82
2022/01/12 06:01:31;;;;;;;0.20;0.20;;;-0.70;99.90;;;-1.14;100.00;102116.34;4884884;29;20207;-82
2022/01/12 06:04:00;;;;;;;0.20;0.20;;;-0.70;99.90;;;-1.14;100.00;102129.31;4899494;29;20222;-83
2022/01/12 06:06:28;;;;;;;0.30;0.30;;;-0.80;99.90;;;-1.15;100.00;102133.63;4896137;29;20232;-83
2022/01/12 06:08:57;;;;;;;0.85;0.85;;;-0.80;99.90;;;-1.06;100.00;102146.44;4896546;29;20571;-83
2022/01/12 06:13:00;;;;;;;0.30;0.30;;;-0.80;99.90;;;-1.20;100.00;102131.41;4887581;29;20203;-83
2022/01/12 06:15:46;;;;;;;0.30;0.30;;;-0.80;99.90;;;-1.20;100.00;102153.09;4899811;29;20227;-83
2022/01/12 06:18:16;;;;;;;0.50;0.50;;;-0.80;99.90;;;-1.17;100.00;102144.66;4885469;29;20219;-86
2022/01/12 06:21:00;;;;;;;0.20;0.20;;;-0.80;99.90;;;-1.33;100.00;102126.88;4897455;29;20693;-83
2022/01/12 06:24:18;;;;;;;0.20;0.20;;;-0.80;99.90;;;-1.19;100.00;102162.69;4899164;29;20230;-81
2022/01/12 06:26:48;;;;;;;0.30;0.30;;;-0.90;99.90;;;-1.30;100.00;102150.50;4901857;29;20246;-82
2022/01/12 06:29:38;;;;;;;0.30;0.30;;;-0.90;99.90;;;-1.52;100.00;102133.88;4883887;29;20583;-82
2022/01/12 06:32:09;;;;;;;0.28;0.28;;;-1.00;99.90;;;-1.33;100.00;102182.28;4898787;29;20215;-82
2022/01/12 06:35:30;;;;;;;0.38;0.38;;;-1.00;99.90;;;-1.30;100.00;102198.13;4898637;29;20208;-81
2022/01/12 06:38:03;;;;;;;0.30;0.30;;;-1.00;99.90;;;-1.26;100.00;102206.19;4898955;29;20207;-82
2022/01/12 06:40:32;;;;;;;0.30;0.30;;;-0.90;99.90;;;-1.33;100.00;102208.22;4892861;29;20271;-82
2022/01/12 06:43:02;;;;;;;0.20;0.20;;;-1.00;99.90;;;-1.40;100.00;102213.69;4873031;29;20592;-82
2022/01/12 06:45:31;;;;;;;0.20;0.20;;;-1.00;99.90;;;-1.36;100.00;102227.81;4907717;29;20234;-84
2022/01/12 06:47:59;;;;;;;0.30;0.30;;;-1.00;99.90;;;-1.32;100.00;102229.91;4873470;29;20234;-82
2022/01/12 06:50:27;;;;;;;0.25;0.25;;;-1.00;99.90;;;-1.31;100.00;102229.13;4903539;29;20211;-82
2022/01/12 06:52:55;;;;;;;0.52;0.52;;;-0.90;99.90;;;-1.38;100.00;102222.50;4920766;29;20206;-81
2022/01/12 06:55:23;;;;;;;0.30;0.30;;;-0.90;99.90;;;-1.31;100.00;102231.72;4904879;29;20215;-82
2022/01/12 06:57:52;;;;;;;0.20;0.20;;;-0.90;99.90;;;-1.40;100.00;102225.75;4901952;29;20219;-82
2022/01/12 07:00:20;;;;;;;0.22;0.22;;;-1.00;99.90;;;-1.42;100.00;102236.00;4902343;29;20219;-82
2022/01/12 07:02:48;;;;;;;0.30;0.30;;;-1.00;99.90;;;-1.51;100.00;102232.63;4902183;29;20215;-82
2022/01/12 07:05:18;;;;;;;0.30;0.30;;;-1.00;99.90;;;-1.39;100.00;102257.03;4901901;29;20662;-82
2022/01/12 07:07:47;;;;;;;0.30;0.30;;;-1.00;99.90;;;-1.38;100.00;102265.72;4886779;29;20227;-82
2022/01/12 07:10:28;;;;;;;0.30;0.30;;;-1.00;99.90;;;-1.36;100.00;102272.84;4901400;29;20207;-82
2022/01/12 07:13:02;;;;;;;0.30;0.30;;;-1.00;99.90;;;-1.33;100.00;102286.09;4887097;29;20212;-82
2022/01/12 07:15:30;;;;;;;0.30;0.30;;;-1.00;99.90;;;-1.28;100.00;102283.94;4917466;29;20230;-82
2022/01/12 07:18:06;;;;;;;0.20;0.20;;;-0.90;99.90;;;-1.35;100.00;102281.56;4901124;29;20588;-82
2022/01/12 07:20:34;;;;;;;0.30;0.30;;;-0.90;99.90;;;-1.35;100.00;102273.75;4886388;29;20210;-82
2022/01/12 07:23:03;;;;;;;0.57;0.57;;;-0.90;99.90;;;-1.46;100.00;102256.38;4886211;29;20207;-82
2022/01/12 07:25:32;;;;;;;0.30;0.30;;;-0.90;99.90;;;-1.33;100.00;102283.50;4897986;29;20243;-82
2022/01/12 07:28:01;;;;;;;0.52;0.52;;;-0.90;99.90;;;-1.39;100.00;102269.09;4886591;29;20234;-82
2022/01/12 07:30:31;;;;;;;0.20;0.20;;;-1.00;99.90;;;-1.54;100.00;102252.19;4871748;29;20212;-81
2022/01/12 07:33:01;;;;;;;0.30;0.30;;;-1.00;99.90;;;-1.51;100.00;102265.44;4903402;29;20206;-82
2022/01/12 07:35:33;;;;;;;0.20;0.20;;;-1.10;99.90;;;-1.46;100.00;102295.28;4897368;29;20249;-82
2022/01/12 07:38:01;;;;;;;0.20;0.20;;;-1.10;99.90;;;-1.47;100.00;102303.84;4901896;29;20218;-82
2022/01/12 07:40:30;;;;;;;0.20;0.20;;;-1.10;99.90;;;-1.44;100.00;102320.59;4901403;29;20215;-82
2022/01/12 07:42:58;;;;;;;0.20;0.20;;;-1.10;99.90;;;-1.35;100.00;102349.94;4901446;29;20204;-82
2022/01/12 07:45:27;;;;;;;0.20;0.20;;;-1.10;99.90;;;-1.35;100.00;102344.75;4904183;29;20238;-83
2022/01/12 07:47:56;;;;;;;1.13;1.13;;;-1.00;99.90;;;-1.35;100.00;102347.34;4906564;29;20223;-83
2022/01/12 07:50:24;;;;;;;0.22;0.22;;;-1.00;99.90;;;-1.38;100.00;102352.28;4909559;29;20203;-83
2022/01/12 07:52:53;;;;;;;0.20;0.20;;;-1.00;99.90;;;-1.46;100.00;102361.06;4892861;29;20234;-83
2022/01/12 07:56:09;;;;;;;0.77;0.77;;;-1.00;99.90;;;-1.40;100.00;102356.41;4925173;29;20211;-83
2022/01/12 07:58:37;;;;;;;0.52;0.52;;;-1.10;99.90;;;-1.41;100.00;102351.09;4890311;29;20206;-83
2022/01/12 08:01:07;;;;;;;0.20;0.20;;;-1.10;99.90;;;-1.48;100.00;102348.75;4902416;29;20218;-83
2022/01/12 08:03:35;;;;;;;0.20;0.20;;;-1.10;99.90;;;-1.52;100.00;102333.69;4917561;29;20218;-83
2022/01/12 08:06:03;;;;;;;0.30;0.30;;;-1.10;99.90;;;-1.47;100.00;102360.94;4886451;29;20235;-83
2022/01/12 08:08:33;;;;;;;0.20;0.20;;;-1.10;99.90;;;-1.48;100.00;102365.22;4885949;29;20246;-83
2022/01/12 08:11:28;;;;;;;0.30;0.30;;;-1.10;99.90;;;-1.40;100.00;102395.34;4894195;29;20222;-84
2022/01/12 08:13:57;;;;;;;0.40;0.40;;;-1.10;99.90;;;-1.20;100.00;102417.88;4897295;29;20222;-84
2022/01/12 08:16:25;;;;;;;0.20;0.20;;;-1.00;99.90;;;-1.23;100.00;102402.03;4900659;29;20231;-84
2022/01/12 08:18:55;;;;;;;0.30;0.30;;;-1.00;99.90;;;-1.28;100.00;102418.91;4887771;29;20211;-84
2022/01/12 08:21:27;;;;;;;0.30;0.30;;;-1.00;99.90;;;-1.18;100.00;102431.91;4876977;29;20222;-83
2022/01/12 08:23:55;;;;;;;0.35;0.35;;;-1.00;99.90;;;-1.13;100.00;102435.81;4891305;29;20594;-84
2022/01/12 08:26:32;;;;;;;0.25;0.25;;;-0.90;99.90;;;-1.11;100.00;102442.06;4895705;29;20608;-83
2022/01/12 08:29:01;;;;;;;0.20;0.20;;;-0.90;99.90;;;-1.12;100.00;102432.44;4884014;29;20235;-84
2022/01/12 08:31:31;;;;;;;1.00;1.00;;;-0.90;99.90;;;-1.07;100.00;102422.47;4902566;29;20215;-83
2022/01/12 08:34:00;;;;;;;0.20;0.20;;;-0.90;99.90;;;-1.08;100.00;102426.75;4934545;29;20222;-84
2022/01/12 08:36:30;;;;;;;0.20;0.20;;;-0.80;99.90;;;-1.10;100.00;102417.00;4917739;29;20239;-84
2022/01/12 08:39:02;;;;;;;0.30;0.30;;;-0.80;99.90;;;-0.98;100.00;102444.94;4886565;29;20227;-84
2022/01/12 08:41:30;;;;;;;0.40;0.40;;;-0.70;99.90;;;-0.79;100.00;102472.53;4871145;29;20223;-84
2022/01/12 08:43:58;;;;;;;0.30;0.30;;;-0.70;99.90;;;-0.68;100.00;102476.97;4917600;29;20222;-84
2022/01/12 08:46:27;;;;;;;0.30;0.30;;;-0.60;99.90;;;-0.62;100.00;102471.38;4891557;29;20254;-84
2022/01/12 08:48:56;;;;;;;0.20;0.20;;;-0.50;99.90;;;-0.54;100.00;102467.75;4887933;29;20230;-83
2022/01/12 08:51:26;;;;;;;0.30;0.30;;;-0.50;99.90;;;-0.53;100.00;102453.97;4873069;29;20214;-83
2022/01/12 08:53:57;;;;;;;1.05;1.05;;;-0.40;99.90;;;-0.36;100.00;102467.63;4930772;29;20203;-83
2022/01/12 08:56:25;;;;;;;0.20;0.20;;;-0.30;99.90;;;-0.30;100.00;102466.34;4906167;29;20243;-83
2022/01/12 08:58:59;;;;;;;0.30;0.30;;;-0.20;99.90;;;-0.31;100.00;102455.03;4912142;29;20215;-83
2022/01/12 09:01:30;;;;;;;0.30;0.30;;;-0.20;99.90;;;-0.24;100.00;102456.44;4891764;29;20200;-82
2022/01/12 09:03:59;;;;;;;0.20;0.20;;;-0.10;99.90;;;-0.18;100.00;102460.47;4898118;29;20208;-83
2022/01/12 09:06:30;;;;;;;0.20;0.20;;;0.00;99.90;;;-0.13;100.00;102453.97;4898061;29;20234;-83
2022/01/12 09:09:04;;;;;;;0.30;0.30;;;0.10;99.90;;;-0.19;100.00;102439.53;4869393;29;20226;-83
2022/01/12 09:11:33;;;;;;;0.30;0.30;;;0.20;99.90;;;-0.07;100.00;102457.09;4896947;29;20210;-83
2022/01/12 09:14:01;;;;;;;0.32;0.32;;;0.40;99.90;;;-0.02;100.00;102457.47;4881560;29;20204;-83
2022/01/12 09:16:29;;;;;;;0.40;0.40;;;0.30;99.90;;;0.08;100.00;102464.38;4914977;29;20227;-83
2022/01/12 09:18:57;;;;;;;0.40;0.40;;;0.20;99.90;;;0.14;100.00;102465.81;4886935;29;20225;-83
2022/01/12 09:21:25;;;;;;;0.22;0.22;;;0.10;99.90;;;0.19;100.00;102481.78;4885968;29;20211;-83
2022/01/12 09:23:54;;;;;;;0.38;0.38;;;0.10;99.90;;;0.19;100.00;102485.31;4881240;29;20690;-83
2022/01/12 09:26:22;;;;;;;0.30;0.30;;;0.20;99.90;;;0.12;100.00;102495.06;4913553;29;20224;-83
2022/01/12 09:28:52;;;;;;;0.40;0.40;;;0.30;99.90;;;0.07;100.00;102502.50;4911794;29;20222;-83
2022/01/12 09:31:24;;;;;;;0.40;0.40;;;0.30;99.90;;;0.08;100.00;102500.81;4909885;29;20230;-83
2022/01/12 09:33:53;;;;;;;0.20;0.20;;;0.40;99.90;;;0.14;100.00;102504.84;4898707;29;20223;-83
2022/01/12 09:36:20;;;;;;;0.30;0.30;;;0.40;99.90;;;0.20;100.00;102517.44;4901538;29;20234;-83
2022/01/12 09:38:52;;;;;;;0.30;0.30;;;0.50;99.90;;;0.30;100.00;102544.38;4888563;29;20215;-83
2022/01/12 09:41:24;;;;;;;0.50;0.50;;;0.50;99.90;;;0.35;100.00;102533.44;4916896;29;20218;-83
2022/01/12 09:43:53;;;;;;;0.30;0.30;;;0.50;99.90;;;0.49;100.00;102557.22;4893425;29;20224;-84
2022/01/12 09:46:28;;;;;;;0.30;0.30;;;0.60;99.90;;;0.56;100.00;102545.63;4898467;29;20227;-84
2022/01/12 09:49:03;;;;;;;0.40;0.40;;;0.60;99.90;;;0.63;100.00;102545.34;4880652;29;20233;-84
2022/01/12 09:51:31;;;;;;;0.40;0.40;;;0.70;99.90;;;0.68;100.00;102541.41;4917144;29;20218;-84
2022/01/12 09:54:02;;;;;;;0.30;0.30;;;0.80;99.90;;;0.72;100.00;102532.16;4885171;29;20238;-84
2022/01/12 09:56:37;;;;;;;0.43;0.43;;;0.90;99.90;;;0.75;100.00;102529.81;4882923;29;20235;-83
2022/01/12 09:59:11;;;;;;;0.20;0.20;;;0.90;99.90;;;0.86;100.00;102529.91;4922800;29;20223;-83
2022/01/12 10:01:44;;;;;;;0.30;0.30;;;1.00;99.90;;;1.12;100.00;102542.41;4882603;29;20214;-84
2022/01/12 10:04:22;;;;;;;0.40;0.40;;;1.10;99.90;;;1.22;100.00;102537.16;4889160;29;20226;-84
2022/01/12 10:06:57;;;;;;;0.30;0.30;;;1.10;99.90;;;1.38;100.00;102543.63;4906296;29;20239;-84
2022/01/12 10:09:38;;;;;;;0.40;0.40;;;1.20;99.90;;;1.51;100.00;102551.63;4904085;29;20230;-84
2022/01/12 10:12:21;;;;;;;0.30;0.30;;;1.40;99.90;;;1.60;100.00;102548.03;4914724;29;20223;-84
2022/01/12 10:15:00;;;;;;;0.40;0.40;;;1.50;99.90;;;1.73;100.00;102547.31;4920332;29;20214;-84
2022/01/12 10:17:47;;;;;;;0.40;0.40;;;1.50;99.90;;;1.70;100.00;102527.91;4892731;29;20232;-84
2022/01/12 10:20:21;;;;;;;0.20;0.20;;;1.60;99.90;;;1.60;100.00;102501.09;4907488;29;20618;-84
2022/01/12 10:23:02;;;;;;;0.43;0.40;;;1.60;99.90;;;1.56;100.00;102483.41;4886822;29;20214;-84
2022/01/12 10:25:30;;;;;;;0.40;0.40;;;1.70;99.90;;;1.59;100.00;102469.69;4913178;29;20243;-84
2022/01/12 10:28:16;;;;;;;0.28;0.28;;;1.70;99.90;;;1.76;100.00;102457.94;4900430;29;20212;-84
2022/01/12 10:31:03;;;;;;;0.40;0.40;;;1.70;99.90;;;2.02;100.00;102467.75;4920372;29;20230;-84
2022/01/12 10:33:34;;;;;;;0.30;0.30;;;1.90;99.90;;;2.16;100.00;102440.97;4883439;29;20211;-83
2022/01/12 10:36:07;;;;;;;0.20;0.20;;;2.00;99.90;;;1.95;100.00;102389.78;4892596;29;20235;-83
2022/01/12 10:38:35;;;;;;;0.40;0.40;;;2.10;99.90;;;1.82;100.00;102370.63;4891128;29;20206;-84
2022/01/12 10:41:07;;;;;;;0.30;0.30;;;2.00;99.90;;;1.69;100.00;102328.75;4902662;29;20207;-84
2022/01/12 10:43:44;;;;;;;0.30;0.30;;;2.00;99.90;;;1.58;100.00;102312.31;4900269;29;20661;-84
2022/01/12 10:46:26;;;;;;;0.40;0.40;;;1.90;99.90;;;1.59;100.00;102315.81;4910751;29;20239;-84
2022/01/12 10:48:56;;;;;;;0.20;0.20;;;1.90;99.90;;;1.89;100.00;102369.38;4900244;29;20226;-82
2022/01/12 10:51:32;;;;;;;0.30;0.30;;;2.00;99.90;;;1.81;100.00;102342.72;4905077;29;20207;-83
2022/01/12 10:54:03;;;;;;;0.20;0.20;;;2.00;99.90;;;1.71;100.00;102334.09;4913320;29;20206;-83
2022/01/12 10:56:32;;;;;;;0.40;0.40;;;2.00;99.90;;;1.96;100.00;102371.66;4901773;29;20239;-84
2022/01/12 11:00:00;;;;;;;0.30;0.30;;;2.00;99.90;;;2.27;100.00;102392.19;4879544;29;20214;-83
2022/01/12 11:02:30;;;;;;;0.25;0.25;;;2.20;99.90;;;2.31;100.00;102366.41;4899674;29;20212;-84
2022/01/12 11:05:07;;;;;;;0.22;0.22;;;2.30;99.90;;;2.31;100.00;102344.59;4903191;29;20674;-84
2022/01/12 11:07:52;;;;;;;0.30;0.30;;;2.40;99.90;;;2.29;100.00;102323.63;4895885;29;20215;-83
2022/01/12 11:10:25;;;;;;;0.30;0.30;;;2.50;99.90;;;2.55;100.00;102356.81;4875526;29;20238;-83
2022/01/12 11:13:41;;;;;;;0.30;0.30;;;2.60;99.90;;;2.31;100.00;102310.66;4886240;29;20211;-84
2022/01/12 11:17:20;;;;;;;0.30;0.30;;;2.50;99.90;;;2.45;100.00;102338.69;4899043;29;20237;-84
2022/01/12 11:21:29;;;;;;;0.30;0.30;;;2.60;99.90;;;2.52;100.00;102352.28;4932914;29;20212;-84
2022/01/12 11:30:22;;;;;;;0.30;0.30;;;2.70;99.90;;;2.85;100.00;102345.97;4923571;29;20226;-83
2022/01/12 11:33:00;;;;;;;0.20;0.20;;;2.90;99.90;;;2.79;100.00;102298.50;4890434;29;20211;-83
2022/01/12 11:35:34;;;;;;;0.32;0.32;;;2.90;99.90;;;2.98;100.00;102326.81;4884198;29;20240;-84
2022/01/12 11:39:10;;;;;;;0.40;0.40;;;3.00;99.90;;;2.98;100.00;102315.47;4895097;29;20214;-85
2022/01/12 11:41:46;;;;;;;0.30;0.30;;;3.10;99.90;;;3.12;100.00;102313.00;4906563;29;20208;-83
2022/01/12 11:45:47;;;;;;;0.20;0.20;;;3.10;99.90;;;3.26;100.00;102305.19;4916139;29;20215;-84
2022/01/12 11:49:44;;;;;;;0.30;0.30;;;3.20;99.90;;;3.20;100.00;102267.38;4912707;29;20217;-84
2022/01/12 11:53:54;;;;;;;0.20;0.20;;;3.40;99.90;;;3.56;100.00;102316.81;4921166;29;20216;-84
2022/01/12 11:56:26;;;;;;;0.20;0.20;;;3.50;99.90;;;3.69;100.00;102343.91;4901540;29;20228;-83
2022/01/12 11:59:11;;;;;;;0.20;0.20;;;3.60;99.90;;;3.46;100.00;102247.28;4881877;29;20230;-82
2022/01/12 12:01:49;;;;;;;0.50;0.50;;;3.70;99.90;;;3.85;100.00;102312.72;4893568;29;20663;-82
2022/01/12 12:04:43;;;;;;;0.20;0.20;;;3.80;99.90;;;3.51;100.00;102214.50;4902388;29;20207;-80
2022/01/12 12:07:13;;;;;;;0.13;0.13;;;3.80;99.90;;;3.80;100.00;102272.25;4926946;29;20245;-82
2022/01/12 12:09:44;;;;;;;0.20;0.20;;;3.90;99.90;;;3.82;100.00;102277.59;4921212;29;20234;-83